sensor_id;sensor_type;location;lat;lon;timestamp;temperature;humidity
51021;DHT22;38907;45.562;8.856;2023-05-07T00:04:41;19.20;99.90
51021;DHT22;38907;45.562;8.856;2023-05-07T00:09:44;19.40;99.90
51021;DHT22;38907;45.562;8.856;2023-05-07T00:14:46;19.00;99.90
51021;DHT22;38907;45.562;8.856;2023-05-07T00:19:48;19.00;99.90
51021;DHT22;38907;45.562;8.856;2023-05-07T00:24:51;19.00;99.90
51021;DHT22;38907;45.562;8.856;2023-05-07T00:29:53;19.30;99.90
51021;DHT22;38907;45.562;8.856;2023-05-07T00:34:55;19.50;99.90
51021;DHT22;38907;45.562;8.856;2023-05-07T00:39:58;19.60;99.90
51021;DHT22;38907;45.562;8.856;2023-05-07T00:45:00;19.70;99.90
51021;DHT22;38907;45.562;8.856;2023-05-07T00:50:04;19.90;99.90
51021;DHT22;38907;45.562;8.856;2023-05-07T00:55:08;19.80;99.90
51021;DHT22;38907;45.562;8.856;2023-05-07T01:00:11;19.60;99.90
51021;DHT22;38907;45.562;8.856;2023-05-07T01:05:15;19.60;99.90
51021;DHT22;38907;45.562;8.856;2023-05-07T01:10:18;19.60;99.90
51021;DHT22;38907;45.562;8.856;2023-05-07T01:15:21;19.50;99.90
51021;DHT22;38907;45.562;8.856;2023-05-07T01:20:23;19.40;99.90
51021;DHT22;38907;45.562;8.856;2023-05-07T01:25:27;19.20;99.90
51021;DHT22;38907;45.562;8.856;2023-05-07T01:30:29;19.10;99.90
51021;DHT22;38907;45.562;8.856;2023-05-07T01:35:35;18.90;99.90
51021;DHT22;38907;45.562;8.856;2023-05-07T01:40:41;18.90;99.90
51021;DHT22;38907;45.562;8.856;2023-05-07T01:45:43;18.90;99.90
51021;DHT22;38907;45.562;8.856;2023-05-07T01:50:46;18.90;99.90
51021;DHT22;38907;45.562;8.856;2023-05-07T01:55:50;18.80;99.90
51021;DHT22;38907;45.562;8.856;2023-05-07T02:00:51;18.70;99.90
51021;DHT22;38907;45.562;8.856;2023-05-07T02:05:53;18.70;99.90
51021;DHT22;38907;45.562;8.856;2023-05-07T02:10:56;18.80;99.90
51021;DHT22;38907;45.562;8.856;2023-05-07T02:15:59;18.70;99.90
51021;DHT22;38907;45.562;8.856;2023-05-07T02:21:00;18.50;99.90
51021;DHT22;38907;45.562;8.856;2023-05-07T02:26:04;18.20;99.90
51021;DHT22;38907;45.562;8.856;2023-05-07T02:31:06;18.00;99.90
51021;DHT22;38907;45.562;8.856;2023-05-07T02:36:09;18.00;99.90
51021;DHT22;38907;45.562;8.856;2023-05-07T02:41:12;17.90;99.90
51021;DHT22;38907;45.562;8.856;2023-05-07T02:46:14;17.60;99.90
51021;DHT22;38907;45.562;8.856;2023-05-07T02:51:19;17.40;99.90
51021;DHT22;38907;45.562;8.856;2023-05-07T02:56:22;17.40;99.90
51021;DHT22;38907;45.562;8.856;2023-05-07T03:01:24;17.30;99.90
51021;DHT22;38907;45.562;8.856;2023-05-07T03:06:26;17.50;99.90
51021;DHT22;38907;45.562;8.856;2023-05-07T03:11:30;17.30;99.90
51021;DHT22;38907;45.562;8.856;2023-05-07T03:16:31;17.00;99.90
51021;DHT22;38907;45.562;8.856;2023-05-07T03:21:33;17.10;99.90
51021;DHT22;38907;45.562;8.856;2023-05-07T03:26:36;16.80;99.90
51021;DHT22;38907;45.562;8.856;2023-05-07T03:31:38;16.70;99.90
51021;DHT22;38907;45.562;8.856;2023-05-07T03:36:40;16.90;99.90
51021;DHT22;38907;45.562;8.856;2023-05-07T03:41:43;17.00;99.90
51021;DHT22;38907;45.562;8.856;2023-05-07T03:46:45;17.00;99.90
51021;DHT22;38907;45.562;8.856;2023-05-07T03:51:48;16.70;99.90
51021;DHT22;38907;45.562;8.856;2023-05-07T03:56:51;16.60;99.90
51021;DHT22;38907;45.562;8.856;2023-05-07T04:01:53;16.80;99.90
51021;DHT22;38907;45.562;8.856;2023-05-07T04:06:55;16.70;99.90
51021;DHT22;38907;45.562;8.856;2023-05-07T04:11:58;16.60;99.90
51021;DHT22;38907;45.562;8.856;2023-05-07T04:17:01;16.60;99.90
51021;DHT22;38907;45.562;8.856;2023-05-07T04:22:03;16.60;99.90
51021;DHT22;38907;45.562;8.856;2023-05-07T04:27:07;16.70;99.90
51021;DHT22;38907;45.562;8.856;2023-05-07T04:32:09;16.70;99.90
51021;DHT22;38907;45.562;8.856;2023-05-07T04:37:11;16.70;99.90
51021;DHT22;38907;45.562;8.856;2023-05-07T04:42:16;16.70;99.90
51021;DHT22;38907;45.562;8.856;2023-05-07T04:47:18;16.80;99.90
51021;DHT22;38907;45.562;8.856;2023-05-07T04:52:20;16.90;99.90
51021;DHT22;38907;45.562;8.856;2023-05-07T04:57:23;17.10;99.90
51021;DHT22;38907;45.562;8.856;2023-05-07T05:02:25;17.10;99.90
51021;DHT22;38907;45.562;8.856;2023-05-07T05:07:26;17.10;99.90
51021;DHT22;38907;45.562;8.856;2023-05-07T05:12:30;16.90;99.90
51021;DHT22;38907;45.562;8.856;2023-05-07T05:17:32;16.70;99.90
51021;DHT22;38907;45.562;8.856;2023-05-07T05:22:35;16.70;99.90
51021;DHT22;38907;45.562;8.856;2023-05-07T05:27:38;16.60;99.90
51021;DHT22;38907;45.562;8.856;2023-05-07T05:32:40;16.70;99.90
51021;DHT22;38907;45.562;8.856;2023-05-07T05:37:42;17.00;99.90
51021;DHT22;38907;45.562;8.856;2023-05-07T05:42:45;17.10;99.90
51021;DHT22;38907;45.562;8.856;2023-05-07T05:47:47;17.20;99.90
51021;DHT22;38907;45.562;8.856;2023-05-07T05:52:49;17.20;99.90
51021;DHT22;38907;45.562;8.856;2023-05-07T05:57:52;17.30;99.90
51021;DHT22;38907;45.562;8.856;2023-05-07T06:02:54;17.40;99.90
51021;DHT22;38907;45.562;8.856;2023-05-07T06:07:56;17.30;99.90
51021;DHT22;38907;45.562;8.856;2023-05-07T06:12:59;17.30;99.90
51021;DHT22;38907;45.562;8.856;2023-05-07T06:18:01;17.30;99.90
51021;DHT22;38907;45.562;8.856;2023-05-07T06:23:03;17.30;99.90
51021;DHT22;38907;45.562;8.856;2023-05-07T06:28:06;17.20;99.90
51021;DHT22;38907;45.562;8.856;2023-05-07T06:33:09;17.30;99.90
51021;DHT22;38907;45.562;8.856;2023-05-07T06:38:10;17.60;99.90
51021;DHT22;38907;45.562;8.856;2023-05-07T06:43:14;17.80;99.90
51021;DHT22;38907;45.562;8.856;2023-05-07T06:48:16;18.00;99.90
51021;DHT22;38907;45.562;8.856;2023-05-07T06:53:17;18.20;99.90
51021;DHT22;38907;45.562;8.856;2023-05-07T06:58:21;18.40;99.90
51021;DHT22;38907;45.562;8.856;2023-05-07T07:03:23;18.40;99.90
51021;DHT22;38907;45.562;8.856;2023-05-07T07:08:24;18.50;99.90
51021;DHT22;38907;45.562;8.856;2023-05-07T07:13:28;18.70;99.90
51021;DHT22;38907;45.562;8.856;2023-05-07T07:18:29;18.90;99.90
51021;DHT22;38907;45.562;8.856;2023-05-07T07:23:32;19.00;99.90
51021;DHT22;38907;45.562;8.856;2023-05-07T07:28:35;19.00;99.90
51021;DHT22;38907;45.562;8.856;2023-05-07T07:33:47;18.90;99.90
51021;DHT22;38907;45.562;8.856;2023-05-07T07:38:50;18.90;99.90
51021;DHT22;38907;45.562;8.856;2023-05-07T07:43:54;19.00;99.90
51021;DHT22;38907;45.562;8.856;2023-05-07T07:48:56;19.00;99.90
51021;DHT22;38907;45.562;8.856;2023-05-07T07:54:06;19.00;99.90
51021;DHT22;38907;45.562;8.856;2023-05-07T07:59:10;19.10;99.90
51021;DHT22;38907;45.562;8.856;2023-05-07T08:04:14;19.10;99.90
51021;DHT22;38907;45.562;8.856;2023-05-07T08:09:17;19.20;99.90
51021;DHT22;38907;45.562;8.856;2023-05-07T08:14:20;19.30;99.90
51021;DHT22;38907;45.562;8.856;2023-05-07T08:19:22;19.30;99.90
51021;DHT22;38907;45.562;8.856;2023-05-07T08:24:25;19.40;99.90
51021;DHT22;38907;45.562;8.856;2023-05-07T08:29:29;19.60;99.90
51021;DHT22;38907;45.562;8.856;2023-05-07T08:34:32;19.70;99.90
51021;DHT22;38907;45.562;8.856;2023-05-07T08:39:34;19.90;99.90
51021;DHT22;38907;45.562;8.856;2023-05-07T08:44:38;19.80;99.90
51021;DHT22;38907;45.562;8.856;2023-05-07T08:49:41;19.80;99.90
51021;DHT22;38907;45.562;8.856;2023-05-07T08:54:44;20.00;99.90
51021;DHT22;38907;45.562;8.856;2023-05-07T08:59:47;20.10;99.90
51021;DHT22;38907;45.562;8.856;2023-05-07T09:04:49;20.10;99.90
51021;DHT22;38907;45.562;8.856;2023-05-07T09:09:52;20.20;99.90
51021;DHT22;38907;45.562;8.856;2023-05-07T09:14:57;20.30;99.90
51021;DHT22;38907;45.562;8.856;2023-05-07T09:20:03;20.40;99.90
51021;DHT22;38907;45.562;8.856;2023-05-07T09:25:07;20.40;99.90
51021;DHT22;38907;45.562;8.856;2023-05-07T09:30:12;20.50;99.90
51021;DHT22;38907;45.562;8.856;2023-05-07T09:35:17;20.50;99.90
51021;DHT22;38907;45.562;8.856;2023-05-07T09:40:23;20.60;99.90
51021;DHT22;38907;45.562;8.856;2023-05-07T09:45:27;20.70;99.90
51021;DHT22;38907;45.562;8.856;2023-05-07T09:50:32;20.80;99.90
51021;DHT22;38907;45.562;8.856;2023-05-07T09:55:38;20.90;99.90
51021;DHT22;38907;45.562;8.856;2023-05-07T10:00:42;21.10;99.90
51021;DHT22;38907;45.562;8.856;2023-05-07T10:05:44;21.30;99.90
51021;DHT22;38907;45.562;8.856;2023-05-07T10:10:49;21.10;99.90
51021;DHT22;38907;45.562;8.856;2023-05-07T10:15:54;21.20;99.90
51021;DHT22;38907;45.562;8.856;2023-05-07T10:21:01;21.50;99.90
51021;DHT22;38907;45.562;8.856;2023-05-07T10:26:05;21.50;99.90
51021;DHT22;38907;45.562;8.856;2023-05-07T10:31:18;21.60;99.90
51021;DHT22;38907;45.562;8.856;2023-05-07T10:36:26;21.70;99.90
51021;DHT22;38907;45.562;8.856;2023-05-07T10:41:28;22.10;99.90
51021;DHT22;38907;45.562;8.856;2023-05-07T10:46:31;22.20;99.90
51021;DHT22;38907;45.562;8.856;2023-05-07T10:51:35;22.30;99.90
51021;DHT22;38907;45.562;8.856;2023-05-07T10:56:38;22.30;99.90
51021;DHT22;38907;45.562;8.856;2023-05-07T11:01:52;22.50;99.90
51021;DHT22;38907;45.562;8.856;2023-05-07T11:07:21;22.40;99.90
51021;DHT22;38907;45.562;8.856;2023-05-07T11:12:48;22.50;99.90
51021;DHT22;38907;45.562;8.856;2023-05-07T11:17:55;22.50;99.90
51021;DHT22;38907;45.562;8.856;2023-05-07T11:22:57;22.40;99.90
51021;DHT22;38907;45.562;8.856;2023-05-07T11:28:05;22.60;99.90
51021;DHT22;38907;45.562;8.856;2023-05-07T11:33:08;22.50;99.90
51021;DHT22;38907;45.562;8.856;2023-05-07T11:38:12;22.50;99.90
51021;DHT22;38907;45.562;8.856;2023-05-07T11:43:14;22.50;99.90
51021;DHT22;38907;45.562;8.856;2023-05-07T11:48:18;22.50;99.90
51021;DHT22;38907;45.562;8.856;2023-05-07T11:53:24;22.50;99.90
51021;DHT22;38907;45.562;8.856;2023-05-07T11:58:27;22.50;99.90
51021;DHT22;38907;45.562;8.856;2023-05-07T12:03:31;22.60;99.90
51021;DHT22;38907;45.562;8.856;2023-05-07T12:08:33;22.70;99.90
51021;DHT22;38907;45.562;8.856;2023-05-07T12:13:38;22.60;99.90
51021;DHT22;38907;45.562;8.856;2023-05-07T12:18:42;22.50;99.90
51021;DHT22;38907;45.562;8.856;2023-05-07T12:23:46;22.50;99.90
51021;DHT22;38907;45.562;8.856;2023-05-07T12:28:48;22.70;99.90
51021;DHT22;38907;45.562;8.856;2023-05-07T12:33:51;22.80;99.90
51021;DHT22;38907;45.562;8.856;2023-05-07T12:38:54;22.90;99.90
51021;DHT22;38907;45.562;8.856;2023-05-07T12:43:56;23.30;99.90
51021;DHT22;38907;45.562;8.856;2023-05-07T12:49:00;23.60;99.90
51021;DHT22;38907;45.562;8.856;2023-05-07T12:54:02;23.30;99.90
51021;DHT22;38907;45.562;8.856;2023-05-07T12:59:04;23.50;99.90
51021;DHT22;38907;45.562;8.856;2023-05-07T13:04:07;23.70;99.90
51021;DHT22;38907;45.562;8.856;2023-05-07T13:09:09;23.70;99.90
51021;DHT22;38907;45.562;8.856;2023-05-07T13:14:12;23.80;99.90
51021;DHT22;38907;45.562;8.856;2023-05-07T13:19:15;23.80;99.90
51021;DHT22;38907;45.562;8.856;2023-05-07T13:24:18;23.90;99.90
51021;DHT22;38907;45.562;8.856;2023-05-07T13:29:20;24.00;99.90
51021;DHT22;38907;45.562;8.856;2023-05-07T13:34:28;23.90;99.90
51021;DHT22;38907;45.562;8.856;2023-05-07T13:39:30;23.90;99.90
51021;DHT22;38907;45.562;8.856;2023-05-07T13:44:32;24.00;99.90
51021;DHT22;38907;45.562;8.856;2023-05-07T13:49:36;23.80;99.90
51021;DHT22;38907;45.562;8.856;2023-05-07T13:54:39;23.70;99.90
51021;DHT22;38907;45.562;8.856;2023-05-07T13:59:42;24.00;99.90
51021;DHT22;38907;45.562;8.856;2023-05-07T14:04:46;24.10;99.90
51021;DHT22;38907;45.562;8.856;2023-05-07T14:09:48;24.20;99.90
51021;DHT22;38907;45.562;8.856;2023-05-07T14:14:51;24.20;99.90
51021;DHT22;38907;45.562;8.856;2023-05-07T14:19:54;24.20;99.90
51021;DHT22;38907;45.562;8.856;2023-05-07T14:24:57;24.10;99.90
51021;DHT22;38907;45.562;8.856;2023-05-07T14:29:59;24.40;99.90
51021;DHT22;38907;45.562;8.856;2023-05-07T14:35:03;24.30;99.90
51021;DHT22;38907;45.562;8.856;2023-05-07T14:40:06;24.10;99.90
51021;DHT22;38907;45.562;8.856;2023-05-07T14:45:10;23.90;99.90
51021;DHT22;38907;45.562;8.856;2023-05-07T14:50:13;23.80;99.90
51021;DHT22;38907;45.562;8.856;2023-05-07T14:55:15;23.80;99.90
51021;DHT22;38907;45.562;8.856;2023-05-07T15:00:17;24.00;99.90
51021;DHT22;38907;45.562;8.856;2023-05-07T15:05:20;24.30;99.90
51021;DHT22;38907;45.562;8.856;2023-05-07T15:10:23;24.40;99.90
51021;DHT22;38907;45.562;8.856;2023-05-07T15:15:24;24.30;99.90
51021;DHT22;38907;45.562;8.856;2023-05-07T15:20:28;24.20;99.90
51021;DHT22;38907;45.562;8.856;2023-05-07T15:25:30;24.00;99.90
51021;DHT22;38907;45.562;8.856;2023-05-07T15:30:34;24.00;99.90
51021;DHT22;38907;45.562;8.856;2023-05-07T15:35:37;23.90;99.90
51021;DHT22;38907;45.562;8.856;2023-05-07T15:40:39;23.80;99.90
51021;DHT22;38907;45.562;8.856;2023-05-07T15:45:42;23.80;99.90
51021;DHT22;38907;45.562;8.856;2023-05-07T15:50:46;23.70;99.90
51021;DHT22;38907;45.562;8.856;2023-05-07T15:55:47;23.80;99.90
51021;DHT22;38907;45.562;8.856;2023-05-07T16:00:49;23.70;99.90
51021;DHT22;38907;45.562;8.856;2023-05-07T16:05:54;23.60;99.90
51021;DHT22;38907;45.562;8.856;2023-05-07T16:10:57;23.40;99.90
51021;DHT22;38907;45.562;8.856;2023-05-07T16:15:59;23.30;99.90
51021;DHT22;38907;45.562;8.856;2023-05-07T16:21:02;23.30;99.90
51021;DHT22;38907;45.562;8.856;2023-05-07T16:26:04;23.20;99.90
51021;DHT22;38907;45.562;8.856;2023-05-07T16:31:06;23.20;99.90
51021;DHT22;38907;45.562;8.856;2023-05-07T16:36:10;23.20;99.90
51021;DHT22;38907;45.562;8.856;2023-05-07T16:41:12;23.20;99.90
51021;DHT22;38907;45.562;8.856;2023-05-07T16:46:14;23.20;99.90
51021;DHT22;38907;45.562;8.856;2023-05-07T16:51:19;23.20;99.90
51021;DHT22;38907;45.562;8.856;2023-05-07T16:56:24;23.10;99.90
51021;DHT22;38907;45.562;8.856;2023-05-07T17:01:27;23.00;99.90
51021;DHT22;38907;45.562;8.856;2023-05-07T17:06:33;22.90;99.90
51021;DHT22;38907;45.562;8.856;2023-05-07T17:11:36;22.90;99.90
51021;DHT22;38907;45.562;8.856;2023-05-07T17:16:38;22.80;99.90
51021;DHT22;38907;45.562;8.856;2023-05-07T17:21:41;22.70;99.90
51021;DHT22;38907;45.562;8.856;2023-05-07T17:26:43;22.60;99.90
51021;DHT22;38907;45.562;8.856;2023-05-07T17:31:46;22.50;99.90
51021;DHT22;38907;45.562;8.856;2023-05-07T17:36:49;22.40;99.90
51021;DHT22;38907;45.562;8.856;2023-05-07T17:41:53;22.30;99.90
51021;DHT22;38907;45.562;8.856;2023-05-07T17:46:55;22.20;99.90
51021;DHT22;38907;45.562;8.856;2023-05-07T17:51:59;22.20;99.90
51021;DHT22;38907;45.562;8.856;2023-05-07T17:57:04;22.20;99.90
51021;DHT22;38907;45.562;8.856;2023-05-07T18:02:08;22.10;99.90
51021;DHT22;38907;45.562;8.856;2023-05-07T18:07:13;22.10;99.90
51021;DHT22;38907;45.562;8.856;2023-05-07T18:12:15;22.00;99.90
51021;DHT22;38907;45.562;8.856;2023-05-07T18:17:17;21.90;99.90
51021;DHT22;38907;45.562;8.856;2023-05-07T18:22:20;21.80;99.90
51021;DHT22;38907;45.562;8.856;2023-05-07T18:27:22;21.70;99.90
51021;DHT22;38907;45.562;8.856;2023-05-07T18:32:24;21.40;99.90
51021;DHT22;38907;45.562;8.856;2023-05-07T18:37:28;21.30;99.90
51021;DHT22;38907;45.562;8.856;2023-05-07T18:42:30;21.20;99.90
51021;DHT22;38907;45.562;8.856;2023-05-07T18:47:32;21.10;99.90
51021;DHT22;38907;45.562;8.856;2023-05-07T18:52:36;21.00;99.90
51021;DHT22;38907;45.562;8.856;2023-05-07T18:57:38;21.00;99.90
51021;DHT22;38907;45.562;8.856;2023-05-07T19:02:40;21.00;99.90
51021;DHT22;38907;45.562;8.856;2023-05-07T19:07:44;21.00;99.90
51021;DHT22;38907;45.562;8.856;2023-05-07T19:12:46;21.00;99.90
51021;DHT22;38907;45.562;8.856;2023-05-07T19:17:52;20.40;99.90
51021;DHT22;38907;45.562;8.856;2023-05-07T19:22:57;19.60;99.90
51021;DHT22;38907;45.562;8.856;2023-05-07T19:27:58;19.20;99.90
51021;DHT22;38907;45.562;8.856;2023-05-07T19:33:03;19.00;99.90
51021;DHT22;38907;45.562;8.856;2023-05-07T19:38:07;19.00;99.90
51021;DHT22;38907;45.562;8.856;2023-05-07T19:43:09;19.00;99.90
51021;DHT22;38907;45.562;8.856;2023-05-07T19:48:13;19.10;99.90
51021;DHT22;38907;45.562;8.856;2023-05-07T19:53:16;19.20;99.90
51021;DHT22;38907;45.562;8.856;2023-05-07T19:58:18;19.10;99.90
51021;DHT22;38907;45.562;8.856;2023-05-07T20:03:21;19.00;99.90
51021;DHT22;38907;45.562;8.856;2023-05-07T20:08:24;18.90;99.90
51021;DHT22;38907;45.562;8.856;2023-05-07T20:13:27;18.90;99.90
51021;DHT22;38907;45.562;8.856;2023-05-07T20:18:29;18.90;99.90
51021;DHT22;38907;45.562;8.856;2023-05-07T20:23:32;18.80;99.90
51021;DHT22;38907;45.562;8.856;2023-05-07T20:28:34;19.00;99.90
51021;DHT22;38907;45.562;8.856;2023-05-07T20:33:37;18.90;99.90
51021;DHT22;38907;45.562;8.856;2023-05-07T20:38:42;19.00;99.90
51021;DHT22;38907;45.562;8.856;2023-05-07T20:43:44;19.10;99.90
51021;DHT22;38907;45.562;8.856;2023-05-07T20:48:48;19.10;99.90
51021;DHT22;38907;45.562;8.856;2023-05-07T20:53:52;19.00;99.90
51021;DHT22;38907;45.562;8.856;2023-05-07T20:58:54;19.20;99.90
51021;DHT22;38907;45.562;8.856;2023-05-07T21:03:56;19.10;99.90
51021;DHT22;38907;45.562;8.856;2023-05-07T21:09:00;19.00;99.90
51021;DHT22;38907;45.562;8.856;2023-05-07T21:14:02;18.80;99.90
51021;DHT22;38907;45.562;8.856;2023-05-07T21:19:03;18.90;99.90
51021;DHT22;38907;45.562;8.856;2023-05-07T21:24:07;18.90;99.90
51021;DHT22;38907;45.562;8.856;2023-05-07T21:29:09;18.80;99.90
51021;DHT22;38907;45.562;8.856;2023-05-07T21:34:11;18.70;99.90
51021;DHT22;38907;45.562;8.856;2023-05-07T21:39:14;18.50;99.90
51021;DHT22;38907;45.562;8.856;2023-05-07T21:44:16;18.50;99.90
51021;DHT22;38907;45.562;8.856;2023-05-07T21:49:18;18.40;99.90
51021;DHT22;38907;45.562;8.856;2023-05-07T21:54:21;18.30;99.90
51021;DHT22;38907;45.562;8.856;2023-05-07T21:59:23;18.40;99.90
51021;DHT22;38907;45.562;8.856;2023-05-07T22:04:25;18.50;99.90
51021;DHT22;38907;45.562;8.856;2023-05-07T22:09:28;18.50;99.90
51021;DHT22;38907;45.562;8.856;2023-05-07T22:14:30;18.60;99.90
51021;DHT22;38907;45.562;8.856;2023-05-07T22:19:32;18.60;99.90
51021;DHT22;38907;45.562;8.856;2023-05-07T22:24:36;18.60;99.90
51021;DHT22;38907;45.562;8.856;2023-05-07T22:29:38;18.60;99.90
51021;DHT22;38907;45.562;8.856;2023-05-07T22:34:40;18.60;99.90
51021;DHT22;38907;45.562;8.856;2023-05-07T22:39:43;18.70;99.90
51021;DHT22;38907;45.562;8.856;2023-05-07T22:44:45;18.80;99.90
51021;DHT22;38907;45.562;8.856;2023-05-07T22:49:47;18.70;99.90
51021;DHT22;38907;45.562;8.856;2023-05-07T22:54:50;18.80;99.90
51021;DHT22;38907;45.562;8.856;2023-05-07T22:59:53;18.80;99.90
51021;DHT22;38907;45.562;8.856;2023-05-07T23:04:57;18.80;99.90
51021;DHT22;38907;45.562;8.856;2023-05-07T23:10:01;18.80;99.90
51021;DHT22;38907;45.562;8.856;2023-05-07T23:15:04;18.70;99.90
51021;DHT22;38907;45.562;8.856;2023-05-07T23:20:07;18.60;99.90
51021;DHT22;38907;45.562;8.856;2023-05-07T23:25:10;18.70;99.90
51021;DHT22;38907;45.562;8.856;2023-05-07T23:30:13;18.70;99.90
51021;DHT22;38907;45.562;8.856;2023-05-07T23:35:15;18.60;99.90
51021;DHT22;38907;45.562;8.856;2023-05-07T23:40:18;18.70;99.90
51021;DHT22;38907;45.562;8.856;2023-05-07T23:45:20;18.70;99.90
51021;DHT22;38907;45.562;8.856;2023-05-07T23:50:22;18.60;99.90
51021;DHT22;38907;45.562;8.856;2023-05-07T23:55:25;18.40;99.90
